Abington, Pennsylvania
Current Conditions -  °F | °C
As of 1:54 PM on Thursday 30 Oct 2014 (Local Time) from KPNE Reporting Station
Few Clouds Few Clouds  
Wind Chill: 16°   Ceiling: Unl
Heat Index: 16°   Visibility: 10mi
Dew Point:   Wind: 9mph
Humidity: 41%   Direction: 310°NW
Pressure: 30.01"   Gusts: NA
Location:  40.12°N, 75.12°W
Report Text: KPNE 301754Z 31008KT 10SM FEW044 16/02 A3001 RMK AO2 SLP162 T01560022 10161 20078 58009 $
Loading
Personal Weather Stations






























Interactive Weather Map
Tropical Storm Tracking
New forecast layout! Learn more

10-Day Weather Forecast

Advertisements
Track Severe Weather on mobile